• Join FlightAware (Why Join?)
  • Login
  • US Flag 
11:03AM EDT


 

Airport Tracker/Info


-or-


 

Live Flight TrackerFlight Track Log ✈ CHQ6027 ✈ 20-Apr-2012 ✈ KALB - KDTW

Flight Track Log - Related Links

Times and Time Zones

All times are in EDT time to prevent confusion due to time zone crossing. See the CHQ6027 flight status page for this flight to view local times or setup timezone preferences in your user account.

Time Position Orientation Groundspeed Altitude Reporting Facility
EDT Latitude Longitude Course Direction KTS MPH feet Rate Location/Type
05:39AM 42.7256 -73.8053 261° West 159 183 1,300  Level Boston Center
05:40AM 42.7186 -73.8617 318° Northwest 199 229 3,900 2,220 Climbing Boston Center
05:41AM 42.7556 -73.9075 323° Northwest 224 258 6,000 2,220 Climbing Boston Center
05:42AM 42.8111 -73.9656 320° Northwest 236 272 8,200 2,100 Climbing Boston Center
05:43AM 42.8644 -74.0264 282° West 249 287 10,300 1,740 Climbing Boston Center
05:45AM 42.8969 -74.2342 272° West 288 331 13,500 1,620 Climbing Boston Center
05:46AM 42.8994 -74.3392 272° West 312 359 15,200 1,680 Climbing Boston Center
05:47AM 42.9033 -74.4725 272° West 312 359 16,900 1,740 Climbing Boston Center
05:48AM 42.9056 -74.5775 272° West 312 359 18,700 1,980 Climbing Boston Center
05:49AM 42.9092 -74.7081 271° West 306 352 20,900 2,040 Climbing Boston Center
05:50AM 42.9111 -74.8242 271° West 306 352 22,800 1,680 Climbing Boston Center
05:51AM 42.9131 -74.9292 273° West 306 352 24,300 1,740 Climbing Boston Center
05:52AM 42.9167 -75.0428 270° West 306 352 26,300 1,800 Climbing Boston Center
05:53AM 42.9161 -75.1533 273° West 306 352 28,000 1,500 Climbing Boston Center
05:54AM 42.9197 -75.2614 272° West 301 346 29,400 1,140 Climbing Boston Center
05:55AM 42.9231 -75.3806 271° West 301 346 30,300 900 Climbing Boston Center
05:56AM 42.9239 -75.5025 271° West 315 362 31,200 840 Climbing Boston Center
05:57AM 42.9247 -75.6331 273° West 330 380 32,000 780 Climbing Boston Center
05:58AM 42.9292 -75.7694 270° West 349 402 32,800 660 Climbing Boston Center
06:00AM 42.9303 -76.0569 271° West 360 414 34,000 360 Climbing Cleveland Center
06:01AM 42.9317 -76.2072 271° West 373 429 34,000  Level Cleveland Center
06:02AM 42.9331 -76.3547 271° West 388 447 34,000  Level Cleveland Center
06:03AM 42.9342 -76.4964 270° West 388 447 34,000  Level Cleveland Center
06:04AM 42.9350 -76.6439 270° West 388 447 34,000  Level Cleveland Center
06:05AM 42.9356 -76.7858 270° West 388 447 34,000  Level Cleveland Center
06:06AM 42.9364 -76.9361 270° West 388 447 34,000  Level Cleveland Center
06:07AM 42.9367 -77.0806 270° West 388 447 34,000  Level Cleveland Center
06:08AM 42.9367 -77.2253 271° West 383 441 34,000  Level Cleveland Center
06:09AM 42.9386 -77.3669 268° West 383 441 34,000  Level Cleveland Center
06:10AM 42.9342 -77.5064 267° West 383 441 34,000  Level Cleveland Center
06:11AM 42.9292 -77.6397 266° West 362 417 34,000  Level Cleveland Center
06:12AM 42.9222 -77.7761 265° West 362 417 34,000  Level Cleveland Center
06:13AM 42.9131 -77.9156 266° West 373 429 34,000  Level Cleveland Center
06:14AM 42.9058 -78.0606 265° West 383 441 34,000  Level Cleveland Center
06:15AM 42.8964 -78.2053 266° West 388 447 34,000  Level Cleveland Center
06:16AM 42.8906 -78.3303 265° West 383 441 34,000  Level Cleveland Center
06:17AM 42.8825 -78.4608 265° West 358 412 34,000  Level Cleveland Center
06:18AM 42.8742 -78.5803 265° West 342 394 34,000  Level Cleveland Center
06:19AM 42.8661 -78.7108 266° West 342 394 34,000  Level Cleveland Center
06:20AM 42.8597 -78.8442 263° West 352 405 34,000  Level Cleveland Center
06:21AM 42.8472 -78.9889 265° West 373 429 34,000  Level Cleveland Center
06:22AM 42.8386 -79.1278 265° West 378 435 34,000  Level Cleveland Center
06:23AM 42.8300 -79.2753 266° West 389 448 34,000  Level Cleveland Center
06:24AM 42.8214 -79.4367 264° West 389 448 34,000  Level Cleveland Center
06:25AM 42.8103 -79.5814 265° West 389 448 34,000 -300 Level Cleveland Center
06:26AM 42.8008 -79.7258 265° West 389 448 33,400 -1,020 Descending Cleveland Center
06:27AM 42.7914 -79.8647 260° West 389 448 32,000 -1,500 Descending Cleveland Center
06:28AM 42.7733 -80.0033 265° West 389 448 30,500 -1,500 Descending Cleveland Center
06:29AM 42.7636 -80.1561 263° West 389 448 29,100 -1,200 Descending Cleveland Center
06:30AM 42.7517 -80.2864 266° West 400 460 28,100 -600 Descending Cleveland Center
06:31AM 42.7436 -80.4447 263° West 405 466 28,000 -60 Descending Cleveland Center
06:32AM 42.7311 -80.5917 264° West 405 466 28,000  Level Cleveland Center
06:33AM 42.7186 -80.7414 263° West 400 460 28,000 -180 Level Cleveland Center
06:34AM 42.7058 -80.8856 261° West 394 453 27,700 -600 Descending Cleveland Center
06:35AM 42.6886 -81.0381 261° West 408 470 26,800 -1,020 Descending Cleveland Center
06:36AM 42.6711 -81.1847 262° West 408 470 25,700 -1,260 Descending Cleveland Center
06:37AM 42.6581 -81.3172 261° West 385 443 24,300 -1,500 Descending Cleveland Center
06:38AM 42.6403 -81.4694 260° West 374 430 22,800 -1,560 Descending Cleveland Center
06:39AM 42.6203 -81.6158 262° West 379 436 21,200 -1,620 Descending Cleveland Center
06:40AM 42.6064 -81.7539 261° West 379 436 19,600 -1,560 Descending Cleveland Center
06:41AM 42.5903 -81.8861 262° West 389 448 18,100 -1,560 Descending Cleveland Center
06:42AM 42.5761 -82.0239 259° West 389 448 16,500 -1,560 Descending Cleveland Center
06:43AM 42.5578 -82.1561 260° West 375 432 15,000 -1,680 Descending Cleveland Center
06:44AM 42.5461 -82.2431 262° West 337 388 13,800 -1,740 Descending Cleveland Center
06:45AM 42.5317 -82.3753 259° West 341 392 12,200 -1,020 Descending Cleveland Center
06:45AM 42.5175 -82.4761 259° West 336 387 12,000 -180 Descending Cleveland Center
06:46AM 42.5106 -82.5239 248° West 340 391 12,000  Level Cleveland Center
06:47AM 42.4728 -82.6494 249° West 333 383 12,000 -480 Level Cleveland Center
06:48AM 42.4417 -82.7608 255° West 327 376 11,100 -1,080 Descending Cleveland Center
06:48AM 42.4325 -82.8083 256° West 293 337 10,400 -1,320 Descending Cleveland Center
06:49AM 42.4231 -82.8614 261° West 304 350 9,800 -1,320 Descending Cleveland Center
06:49AM 42.4181 -82.9036 258° West 255 293 9,100 -1,740 Descending Cleveland Center
06:50AM 42.4108 -82.9483 258° West 261 300 8,100 -1,680 Descending Cleveland Center
06:50AM 42.4036 -82.9931 258° West 240 276 7,400 -1,320 Descending Cleveland Center
06:51AM 42.3914 -83.0742 250° West 226 260 6,100 -1,320 Descending Cleveland Center
06:52AM 42.3764 -83.1306 245° Southwest 200 230 4,900 -1,380 Descending FAA TRACON SMA TRACON (SMA)
06:53AM 42.3600 -83.1789 246° West 196 226 4,000 -900 Descending FAA TRACON SMA TRACON (SMA)
06:54AM 42.3450 -83.2239 229° Southwest 168 193 3,700 -780 Descending FAA TRACON SMA TRACON (SMA)
06:54AM 42.3242 -83.2564 209° Southwest 173 199 3,000 -1,020 Descending FAA TRACON SMA TRACON (SMA)
06:55AM 42.2972 -83.2767 209° Southwest 156 180 2,400 -780 Descending FAA TRACON SMA TRACON (SMA)
06:56AM 42.2781 -83.2908 209° Southwest 132 152 2,000 -600 Descending FAA TRACON SMA TRACON (SMA)
06:56AM 42.2558 -83.3072 209° Southwest 118 136 1,600 -720 Descending FAA TRACON SMA TRACON (SMA)
06:57AM 42.2358 -83.3222 208° Southwest 124 143 1,100 -600 Descending FAA TRACON SMA TRACON (SMA)
06:58AM 42.2194 -83.3342 208° Southwest 137 158 800 -480 Descending FAA TRACON SMA TRACON (SMA)